sensor_id;sensor_type;location;lat;lon;timestamp;pressure;altitude;pressure_sealevel;temperature;humidity
69411;BME280;56604;48.652;9.194;2022-09-21T00:00:29;97082.41;;;7.37;82.62
69411;BME280;56604;48.652;9.194;2022-09-21T00:02:55;97086.03;;;7.36;83.19
69411;BME280;56604;48.652;9.194;2022-09-21T00:05:21;97085.63;;;7.39;83.07
69411;BME280;56604;48.652;9.194;2022-09-21T00:07:46;97084.84;;;7.25;83.82
69411;BME280;56604;48.652;9.194;2022-09-21T00:10:11;97086.91;;;7.16;83.22
69411;BME280;56604;48.652;9.194;2022-09-21T00:12:37;97083.25;;;7.24;82.68
69411;BME280;56604;48.652;9.194;2022-09-21T00:15:07;97091.31;;;7.22;82.46
69411;BME280;56604;48.652;9.194;2022-09-21T00:17:32;97084.88;;;7.18;83.38
69411;BME280;56604;48.652;9.194;2022-09-21T00:19:58;97079.69;;;7.12;83.86
69411;BME280;56604;48.652;9.194;2022-09-21T00:22:25;97094.22;;;6.94;84.34
69411;BME280;56604;48.652;9.194;2022-09-21T00:24:51;97092.00;;;6.98;84.03
69411;BME280;56604;48.652;9.194;2022-09-21T00:27:16;97094.63;;;6.85;85.42
69411;BME280;56604;48.652;9.194;2022-09-21T00:29:41;97092.81;;;6.79;85.55
69411;BME280;56604;48.652;9.194;2022-09-21T00:32:07;97086.59;;;6.73;85.89
69411;BME280;56604;48.652;9.194;2022-09-21T00:34:32;97085.00;;;6.72;86.67
69411;BME280;56604;48.652;9.194;2022-09-21T00:36:57;97088.81;;;6.69;86.87
69411;BME280;56604;48.652;9.194;2022-09-21T00:39:22;97086.19;;;6.76;86.77
69411;BME280;56604;48.652;9.194;2022-09-21T00:41:48;97082.97;;;6.74;87.04
69411;BME280;56604;48.652;9.194;2022-09-21T00:46:50;97083.78;;;6.81;87.08
69411;BME280;56604;48.652;9.194;2022-09-21T00:49:18;97078.34;;;6.83;86.53
69411;BME280;56604;48.652;9.194;2022-09-21T00:51:45;97081.97;;;6.82;86.09
69411;BME280;56604;48.652;9.194;2022-09-21T00:54:14;97093.03;;;6.84;85.71
69411;BME280;56604;48.652;9.194;2022-09-21T00:56:42;97087.78;;;6.84;85.85
69411;BME280;56604;48.652;9.194;2022-09-21T00:59:09;97088.56;;;6.91;85.69
69411;BME280;56604;48.652;9.194;2022-09-21T01:01:34;97087.78;;;6.84;85.86
69411;BME280;56604;48.652;9.194;2022-09-21T01:04:02;97090.59;;;6.89;85.13
69411;BME280;56604;48.652;9.194;2022-09-21T01:06:31;97082.75;;;6.82;83.85
69411;BME280;56604;48.652;9.194;2022-09-21T01:08:59;97087.78;;;6.84;84.75
69411;BME280;56604;48.652;9.194;2022-09-21T01:14:13;97082.97;;;6.87;84.44
69411;BME280;56604;48.652;9.194;2022-09-21T01:16:51;97077.34;;;6.84;84.68
69411;BME280;56604;48.652;9.194;2022-09-21T01:19:38;97083.56;;;6.83;85.22
69411;BME280;56604;48.652;9.194;2022-09-21T01:30:38;97074.34;;;6.60;84.88
69411;BME280;56604;48.652;9.194;2022-09-21T01:33:14;97081.00;;;6.49;85.05
69411;BME280;56604;48.652;9.194;2022-09-21T01:36:03;97086.22;;;6.56;85.35
69411;BME280;56604;48.652;9.194;2022-09-21T01:38:41;97081.22;;;6.55;85.73
69411;BME280;56604;48.652;9.194;2022-09-21T01:41:09;97085.81;;;6.52;85.77
69411;BME280;56604;48.652;9.194;2022-09-21T01:43:39;97085.81;;;6.52;85.33
69411;BME280;56604;48.652;9.194;2022-09-21T01:46:10;97084.22;;;6.45;85.90
69411;BME280;56604;48.652;9.194;2022-09-21T01:48:40;97088.25;;;6.41;85.78
69411;BME280;56604;48.652;9.194;2022-09-21T01:51:10;97088.84;;;6.29;86.41
69411;BME280;56604;48.652;9.194;2022-09-21T01:53:44;97085.59;;;6.14;86.81
69411;BME280;56604;48.652;9.194;2022-09-21T01:56:19;97090.63;;;6.09;87.33
69411;BME280;56604;48.652;9.194;2022-09-21T01:59:00;97084.19;;;6.05;87.47
69411;BME280;56604;48.652;9.194;2022-09-21T02:01:29;97090.03;;;6.07;88.54
69411;BME280;56604;48.652;9.194;2022-09-21T02:04:04;97088.41;;;6.06;88.65
69411;BME280;56604;48.652;9.194;2022-09-21T02:06:32;97088.78;;;6.03;88.82
69411;BME280;56604;48.652;9.194;2022-09-21T02:08:58;97090.63;;;6.09;88.92
69411;BME280;56604;48.652;9.194;2022-09-21T02:11:23;97088.41;;;6.13;89.23
69411;BME280;56604;48.652;9.194;2022-09-21T02:13:51;97082.59;;;6.17;89.25
69411;BME280;56604;48.652;9.194;2022-09-21T02:16:39;97083.00;;;6.21;89.27
69411;BME280;56604;48.652;9.194;2022-09-21T02:19:17;97082.78;;;6.22;88.86
69411;BME280;56604;48.652;9.194;2022-09-21T02:22:12;97079.97;;;6.17;88.73
69411;BME280;56604;48.652;9.194;2022-09-21T02:24:53;97078.56;;;6.08;88.73
69411;BME280;56604;48.652;9.194;2022-09-21T02:29:59;97074.16;;;6.02;89.83
69411;BME280;56604;48.652;9.194;2022-09-21T02:32:31;97074.97;;;6.09;89.62
69411;BME280;56604;48.652;9.194;2022-09-21T02:35:15;97082.59;;;6.04;89.52
69411;BME280;56604;48.652;9.194;2022-09-21T02:37:51;97072.56;;;6.01;88.62
69411;BME280;56604;48.652;9.194;2022-09-21T02:42:48;97076.88;;;5.80;89.27
69411;BME280;56604;48.652;9.194;2022-09-21T02:45:44;97084.34;;;5.83;89.44
69411;BME280;56604;48.652;9.194;2022-09-21T02:48:15;97082.53;;;5.91;89.21
69411;BME280;56604;48.652;9.194;2022-09-21T02:50:57;97087.72;;;5.77;88.71
69411;BME280;56604;48.652;9.194;2022-09-21T02:53:27;97086.94;;;5.83;88.84
69411;BME280;56604;48.652;9.194;2022-09-21T02:55:56;97083.09;;;5.79;90.33
69411;BME280;56604;48.652;9.194;2022-09-21T02:58:24;97078.47;;;5.75;89.88
69411;BME280;56604;48.652;9.194;2022-09-21T03:00:51;97092.75;;;5.72;90.11
69411;BME280;56604;48.652;9.194;2022-09-21T03:03:18;97090.50;;;5.69;89.61
69411;BME280;56604;48.652;9.194;2022-09-21T03:05:45;97082.88;;;5.61;90.95
69411;BME280;56604;48.652;9.194;2022-09-21T03:08:12;97082.03;;;5.47;91.32
69411;BME280;56604;48.652;9.194;2022-09-21T03:10:38;97084.03;;;5.52;90.74
69411;BME280;56604;48.652;9.194;2022-09-21T03:13:06;97085.22;;;5.49;91.69
69411;BME280;56604;48.652;9.194;2022-09-21T03:15:33;97076.19;;;5.52;91.98
69411;BME280;56604;48.652;9.194;2022-09-21T03:17:59;97086.84;;;5.50;91.13
69411;BME280;56604;48.652;9.194;2022-09-21T03:20:24;97084.41;;;5.49;92.30
69411;BME280;56604;48.652;9.194;2022-09-21T03:22:50;97087.97;;;5.34;91.81
69411;BME280;56604;48.652;9.194;2022-09-21T03:25:15;97090.78;;;5.33;91.91
69411;BME280;56604;48.652;9.194;2022-09-21T03:27:40;97089.75;;;5.27;91.84
69411;BME280;56604;48.652;9.194;2022-09-21T03:30:07;97093.97;;;5.28;92.38
69411;BME280;56604;48.652;9.194;2022-09-21T03:32:32;97089.75;;;5.27;92.53
69411;BME280;56604;48.652;9.194;2022-09-21T03:34:57;97096.41;;;5.36;91.83
69411;BME280;56604;48.652;9.194;2022-09-21T03:37:23;97093.66;;;5.45;91.82
69411;BME280;56604;48.652;9.194;2022-09-21T03:39:49;97095.22;;;5.32;92.47
69411;BME280;56604;48.652;9.194;2022-09-21T03:42:14;97086.94;;;5.29;92.48
69411;BME280;56604;48.652;9.194;2022-09-21T03:44:39;97097.97;;;5.24;92.61
69411;BME280;56604;48.652;9.194;2022-09-21T03:47:05;97097.97;;;5.24;92.37
69411;BME280;56604;48.652;9.194;2022-09-21T03:49:31;97099.19;;;5.28;92.81
69411;BME280;56604;48.652;9.194;2022-09-21T03:51:58;97097.81;;;5.32;93.48
69411;BME280;56604;48.652;9.194;2022-09-21T03:54:23;97100.59;;;5.24;92.46
69411;BME280;56604;48.652;9.194;2022-09-21T03:56:50;97112.06;;;5.36;92.62
69411;BME280;56604;48.652;9.194;2022-09-21T03:59:15;97094.44;;;5.38;91.52
69411;BME280;56604;48.652;9.194;2022-09-21T04:01:41;97099.63;;;5.38;91.28
69411;BME280;56604;48.652;9.194;2022-09-21T04:04:07;97101.00;;;5.34;90.77
69411;BME280;56604;48.652;9.194;2022-09-21T04:06:32;97095.22;;;5.39;91.75
69411;BME280;56604;48.652;9.194;2022-09-21T04:08:58;97097.97;;;5.24;91.09
69411;BME280;56604;48.652;9.194;2022-09-21T04:11:24;97102.41;;;5.30;91.15
69411;BME280;56604;48.652;9.194;2022-09-21T04:13:49;97092.38;;;5.34;91.54
69411;BME280;56604;48.652;9.194;2022-09-21T04:16:17;97094.59;;;5.30;91.97
69411;BME280;56604;48.652;9.194;2022-09-21T04:18:42;97095.00;;;5.40;91.21
69411;BME280;56604;48.652;9.194;2022-09-21T04:21:07;97097.59;;;5.34;90.13
69411;BME280;56604;48.652;9.194;2022-09-21T04:23:33;97099.97;;;5.22;90.36
69411;BME280;56604;48.652;9.194;2022-09-21T04:25:59;97106.19;;;5.21;90.29
69411;BME280;56604;48.652;9.194;2022-09-21T04:28:24;97100.59;;;5.24;90.29
69411;BME280;56604;48.652;9.194;2022-09-21T04:30:53;97102.63;;;5.35;90.40
69411;BME280;56604;48.652;9.194;2022-09-21T04:33:19;97108.84;;;5.34;89.67
69411;BME280;56604;48.652;9.194;2022-09-21T04:35:44;97101.16;;;5.26;90.16
69411;BME280;56604;48.652;9.194;2022-09-21T04:38:09;97108.72;;;5.14;89.92
69411;BME280;56604;48.652;9.194;2022-09-21T04:40:35;97107.94;;;5.14;90.01
69411;BME280;56604;48.652;9.194;2022-09-21T04:43:00;97113.69;;;5.03;90.47
69411;BME280;56604;48.652;9.194;2022-09-21T04:45:25;97110.47;;;5.01;90.50
69411;BME280;56604;48.652;9.194;2022-09-21T04:47:50;97114.31;;;5.05;90.06
69411;BME280;56604;48.652;9.194;2022-09-21T04:50:16;97119.94;;;5.08;90.21
69411;BME280;56604;48.652;9.194;2022-09-21T04:52:41;97120.28;;;4.99;89.79
69411;BME280;56604;48.652;9.194;2022-09-21T04:55:07;97118.28;;;5.01;90.63
69411;BME280;56604;48.652;9.194;2022-09-21T04:57:33;97121.53;;;5.09;91.13
69411;BME280;56604;48.652;9.194;2022-09-21T05:00:00;97125.56;;;5.12;91.33
69411;BME280;56604;48.652;9.194;2022-09-21T05:02:25;97123.56;;;5.14;91.94
69411;BME280;56604;48.652;9.194;2022-09-21T05:04:50;97128.56;;;5.09;91.41
69411;BME280;56604;48.652;9.194;2022-09-21T05:07:16;97131.09;;;4.95;91.02
69411;BME280;56604;48.652;9.194;2022-09-21T05:09:41;97146.28;;;4.92;91.34
69411;BME280;56604;48.652;9.194;2022-09-21T05:12:25;97139.72;;;4.96;90.84
69411;BME280;56604;48.652;9.194;2022-09-21T05:14:50;97132.69;;;4.96;90.54
69411;BME280;56604;48.652;9.194;2022-09-21T05:17:16;97127.88;;;4.93;90.87
69411;BME280;56604;48.652;9.194;2022-09-21T05:19:41;97135.16;;;5.05;91.02
69411;BME280;56604;48.652;9.194;2022-09-21T05:22:07;97136.56;;;5.07;91.55
69411;BME280;56604;48.652;9.194;2022-09-21T05:24:32;97125.16;;;5.08;90.86
69411;BME280;56604;48.652;9.194;2022-09-21T05:26:58;97139.22;;;5.14;92.31
69411;BME280;56604;48.652;9.194;2022-09-21T05:29:23;97139.63;;;5.17;91.81
69411;BME280;56604;48.652;9.194;2022-09-21T05:32:02;97134.59;;;5.51;92.68
69411;BME280;56604;48.652;9.194;2022-09-21T05:37:35;97132.44;;;6.56;90.76
69411;BME280;56604;48.652;9.194;2022-09-21T05:40:03;97132.44;;;6.89;88.58
69411;BME280;56604;48.652;9.194;2022-09-21T05:42:28;97122.69;;;7.22;86.63
69411;BME280;56604;48.652;9.194;2022-09-21T05:44:54;97123.78;;;7.53;86.41
69411;BME280;56604;48.652;9.194;2022-09-21T05:49:54;97120.16;;;8.63;80.44
69411;BME280;56604;48.652;9.194;2022-09-21T05:52:34;97128.38;;;8.66;79.37
69411;BME280;56604;48.652;9.194;2022-09-21T05:58:15;97127.69;;;9.39;73.98
69411;BME280;56604;48.652;9.194;2022-09-21T06:03:29;97131.47;;;8.56;76.65
69411;BME280;56604;48.652;9.194;2022-09-21T06:05:55;97134.59;;;8.72;76.09
69411;BME280;56604;48.652;9.194;2022-09-21T06:08:21;97131.16;;;9.33;74.00
69411;BME280;56604;48.652;9.194;2022-09-21T06:10:46;97135.69;;;9.44;73.05
69411;BME280;56604;48.652;9.194;2022-09-21T06:13:12;97135.84;;;9.98;72.59
69411;BME280;56604;48.652;9.194;2022-09-21T06:15:38;97131.38;;;10.59;69.63
69411;BME280;56604;48.652;9.194;2022-09-21T06:18:04;97135.28;;;10.92;68.66
69411;BME280;56604;48.652;9.194;2022-09-21T06:20:30;97136.19;;;11.09;67.85
69411;BME280;56604;48.652;9.194;2022-09-21T06:23:03;97145.34;;;11.82;65.23
69411;BME280;56604;48.652;9.194;2022-09-21T06:25:29;97137.28;;;12.46;63.55
69411;BME280;56604;48.652;9.194;2022-09-21T06:27:54;97148.88;;;12.45;61.98
69411;BME280;56604;48.652;9.194;2022-09-21T06:30:20;97142.91;;;12.50;63.60
69411;BME280;56604;48.652;9.194;2022-09-21T06:32:45;97144.72;;;12.49;62.65
69411;BME280;56604;48.652;9.194;2022-09-21T06:35:10;97135.78;;;12.67;61.93
69411;BME280;56604;48.652;9.194;2022-09-21T06:37:36;97140.88;;;12.57;62.66
69411;BME280;56604;48.652;9.194;2022-09-21T06:40:05;97145.06;;;12.70;62.12
69411;BME280;56604;48.652;9.194;2022-09-21T06:42:30;97137.22;;;12.75;61.58
69411;BME280;56604;48.652;9.194;2022-09-21T06:44:56;97143.13;;;13.16;60.40
69411;BME280;56604;48.652;9.194;2022-09-21T06:47:21;97139.88;;;13.47;58.78
69411;BME280;56604;48.652;9.194;2022-09-21T06:49:46;97141.09;;;13.62;59.15
69411;BME280;56604;48.652;9.194;2022-09-21T06:52:12;97142.19;;;13.88;58.12
69411;BME280;56604;48.652;9.194;2022-09-21T06:54:37;97148.38;;;13.16;59.57
69411;BME280;56604;48.652;9.194;2022-09-21T06:57:03;97143.97;;;13.82;58.54
69411;BME280;56604;48.652;9.194;2022-09-21T06:59:29;97147.75;;;14.13;56.53
69411;BME280;56604;48.652;9.194;2022-09-21T07:01:54;97147.94;;;13.58;58.69
69411;BME280;56604;48.652;9.194;2022-09-21T07:04:22;97139.19;;;13.79;58.48
69411;BME280;56604;48.652;9.194;2022-09-21T07:06:49;97148.53;;;13.87;58.26
69411;BME280;56604;48.652;9.194;2022-09-21T07:09:14;97147.22;;;13.07;60.27
69411;BME280;56604;48.652;9.194;2022-09-21T07:11:39;97137.97;;;13.26;59.16
69411;BME280;56604;48.652;9.194;2022-09-21T07:14:06;97142.09;;;13.56;58.46
69411;BME280;56604;48.652;9.194;2022-09-21T07:16:31;97143.06;;;13.49;59.71
69411;BME280;56604;48.652;9.194;2022-09-21T07:18:57;97135.78;;;14.60;57.31
69411;BME280;56604;48.652;9.194;2022-09-21T07:21:23;97144.47;;;14.01;57.36
69411;BME280;56604;48.652;9.194;2022-09-21T07:23:49;97156.28;;;13.49;59.12
69411;BME280;56604;48.652;9.194;2022-09-21T07:26:14;97154.94;;;14.18;59.30
69411;BME280;56604;48.652;9.194;2022-09-21T07:28:40;97156.06;;;13.00;59.68
69411;BME280;56604;48.652;9.194;2022-09-21T07:31:07;97150.44;;;14.18;56.78
69411;BME280;56604;48.652;9.194;2022-09-21T07:33:33;97155.34;;;14.05;58.64
69411;BME280;56604;48.652;9.194;2022-09-21T07:36:00;97155.97;;;14.66;57.66
69411;BME280;56604;48.652;9.194;2022-09-21T07:38:26;97158.50;;;14.56;56.43
69411;BME280;56604;48.652;9.194;2022-09-21T07:40:52;97157.00;;;15.40;54.38
69411;BME280;56604;48.652;9.194;2022-09-21T07:43:17;97166.72;;;14.32;58.07
69411;BME280;56604;48.652;9.194;2022-09-21T07:45:42;97164.41;;;14.68;56.24
69411;BME280;56604;48.652;9.194;2022-09-21T07:48:08;97174.16;;;14.35;56.05
69411;BME280;56604;48.652;9.194;2022-09-21T07:50:34;97170.53;;;14.14;56.47
69411;BME280;56604;48.652;9.194;2022-09-21T07:53:00;97169.84;;;14.02;57.19
69411;BME280;56604;48.652;9.194;2022-09-21T07:55:26;97165.69;;;14.11;59.54
69411;BME280;56604;48.652;9.194;2022-09-21T07:57:51;97161.41;;;14.87;58.21
69411;BME280;56604;48.652;9.194;2022-09-21T08:00:35;97154.34;;;14.97;54.29
69411;BME280;56604;48.652;9.194;2022-09-21T08:03:02;97158.97;;;15.17;53.79
69411;BME280;56604;48.652;9.194;2022-09-21T08:05:28;97157.31;;;15.11;55.53
69411;BME280;56604;48.652;9.194;2022-09-21T08:07:56;97159.66;;;15.45;55.00
69411;BME280;56604;48.652;9.194;2022-09-21T08:10:23;97155.31;;;14.86;53.91
69411;BME280;56604;48.652;9.194;2022-09-21T08:12:50;97159.78;;;14.85;54.72
69411;BME280;56604;48.652;9.194;2022-09-21T08:15:15;97156.03;;;14.49;56.15
69411;BME280;56604;48.652;9.194;2022-09-21T08:17:42;97165.44;;;14.62;56.85
69411;BME280;56604;48.652;9.194;2022-09-21T08:20:07;97161.34;;;14.49;56.44
69411;BME280;56604;48.652;9.194;2022-09-21T08:22:33;97164.69;;;14.67;59.15
69411;BME280;56604;48.652;9.194;2022-09-21T08:24:58;97166.28;;;14.68;55.51
69411;BME280;56604;48.652;9.194;2022-09-21T08:27:23;97173.56;;;14.28;58.19
69411;BME280;56604;48.652;9.194;2022-09-21T08:29:51;97162.38;;;14.21;57.28
69411;BME280;56604;48.652;9.194;2022-09-21T08:32:16;97167.34;;;14.67;57.15
69411;BME280;56604;48.652;9.194;2022-09-21T08:34:42;97157.41;;;14.84;55.44
69411;BME280;56604;48.652;9.194;2022-09-21T08:37:07;97161.25;;;15.51;55.42
69411;BME280;56604;48.652;9.194;2022-09-21T08:39:33;97163.59;;;15.42;52.48
69411;BME280;56604;48.652;9.194;2022-09-21T08:42:29;97168.75;;;15.17;55.10
69411;BME280;56604;48.652;9.194;2022-09-21T08:45:18;97164.44;;;15.48;57.29
69411;BME280;56604;48.652;9.194;2022-09-21T08:47:56;97172.09;;;15.92;55.63
69411;BME280;56604;48.652;9.194;2022-09-21T08:50:30;97169.94;;;15.36;54.39
69411;BME280;56604;48.652;9.194;2022-09-21T08:53:02;97170.47;;;15.81;55.79
69411;BME280;56604;48.652;9.194;2022-09-21T08:55:28;97163.16;;;16.18;53.42
69411;BME280;56604;48.652;9.194;2022-09-21T08:57:54;97168.13;;;15.42;55.75
69411;BME280;56604;48.652;9.194;2022-09-21T09:00:19;97164.06;;;14.87;56.02
69411;BME280;56604;48.652;9.194;2022-09-21T09:03:08;97163.59;;;15.90;54.22
69411;BME280;56604;48.652;9.194;2022-09-21T09:05:50;97166.69;;;15.24;54.37
69411;BME280;56604;48.652;9.194;2022-09-21T09:08:25;97165.13;;;15.76;54.70
69411;BME280;56604;48.652;9.194;2022-09-21T09:17:03;97159.34;;;15.84;54.66
69411;BME280;56604;48.652;9.194;2022-09-21T09:19:41;97151.63;;;15.82;54.02
69411;BME280;56604;48.652;9.194;2022-09-21T09:22:11;97159.50;;;15.19;55.74
69411;BME280;56604;48.652;9.194;2022-09-21T09:24:41;97160.59;;;15.23;55.26
69411;BME280;56604;48.652;9.194;2022-09-21T09:27:26;97154.56;;;14.58;55.81
69411;BME280;56604;48.652;9.194;2022-09-21T09:30:17;97153.69;;;15.22;55.12
69411;BME280;56604;48.652;9.194;2022-09-21T09:35:23;97155.75;;;14.73;56.78
69411;BME280;56604;48.652;9.194;2022-09-21T09:37:49;97153.88;;;14.73;58.58
69411;BME280;56604;48.652;9.194;2022-09-21T09:40:25;97145.88;;;15.48;54.82
69411;BME280;56604;48.652;9.194;2022-09-21T09:43:09;97146.13;;;14.99;55.14
69411;BME280;56604;48.652;9.194;2022-09-21T09:50:51;97146.38;;;14.60;55.68
69411;BME280;56604;48.652;9.194;2022-09-21T09:53:19;97134.47;;;14.95;57.84
69411;BME280;56604;48.652;9.194;2022-09-21T09:55:49;97138.69;;;14.58;57.07
69411;BME280;56604;48.652;9.194;2022-09-21T09:58:24;97137.03;;;14.84;56.81
69411;BME280;56604;48.652;9.194;2022-09-21T10:00:52;97125.13;;;14.87;56.27
69411;BME280;56604;48.652;9.194;2022-09-21T10:03:20;97127.88;;;14.97;57.97
69411;BME280;56604;48.652;9.194;2022-09-21T10:05:46;97128.09;;;14.96;54.40
69411;BME280;56604;48.652;9.194;2022-09-21T10:11:03;97133.25;;;14.75;53.51
69411;BME280;56604;48.652;9.194;2022-09-21T10:13:34;97123.56;;;14.54;53.93
69411;BME280;56604;48.652;9.194;2022-09-21T10:16:03;97123.59;;;14.96;54.42
69411;BME280;56604;48.652;9.194;2022-09-21T10:18:57;97124.72;;;14.63;55.63
69411;BME280;56604;48.652;9.194;2022-09-21T10:24:00;97125.34;;;14.21;56.74
69411;BME280;56604;48.652;9.194;2022-09-21T10:26:44;97123.63;;;14.37;57.50
69411;BME280;56604;48.652;9.194;2022-09-21T10:32:00;97110.75;;;14.73;55.57
69411;BME280;56604;48.652;9.194;2022-09-21T10:34:30;97116.41;;;14.27;55.06
69411;BME280;56604;48.652;9.194;2022-09-21T10:36:58;97122.00;;;14.04;56.69
69411;BME280;56604;48.652;9.194;2022-09-21T10:39:28;97120.94;;;13.78;57.56
69411;BME280;56604;48.652;9.194;2022-09-21T10:41:57;97125.09;;;13.52;57.94
69411;BME280;56604;48.652;9.194;2022-09-21T10:45:13;97121.72;;;13.34;59.46
69411;BME280;56604;48.652;9.194;2022-09-21T10:47:43;97117.97;;;13.30;59.32
69411;BME280;56604;48.652;9.194;2022-09-21T10:50:28;97110.16;;;13.18;59.44
69411;BME280;56604;48.652;9.194;2022-09-21T10:53:18;97105.44;;;13.42;58.15
69411;BME280;56604;48.652;9.194;2022-09-21T10:56:07;97096.22;;;14.16;57.88
69411;BME280;56604;48.652;9.194;2022-09-21T10:59:36;97095.66;;;14.14;58.27
69411;BME280;56604;48.652;9.194;2022-09-21T11:01:56;97093.72;;;14.04;56.48
69411;BME280;56604;48.652;9.194;2022-09-21T11:12:52;97097.66;;;14.56;52.92
69411;BME280;56604;48.652;9.194;2022-09-21T11:18:21;97097.91;;;14.97;52.31
69411;BME280;56604;48.652;9.194;2022-09-21T11:24:18;97096.25;;;14.85;52.22
69411;BME280;56604;48.652;9.194;2022-09-21T11:27:02;97089.44;;;14.95;51.73
69411;BME280;56604;48.652;9.194;2022-09-21T11:29:46;97099.50;;;14.93;51.57
69411;BME280;56604;48.652;9.194;2022-09-21T11:41:00;97083.72;;;14.71;50.62
69411;BME280;56604;48.652;9.194;2022-09-21T11:46:23;97082.63;;;15.04;51.01
69411;BME280;56604;48.652;9.194;2022-09-21T11:57:24;97063.13;;;15.25;50.47
69411;BME280;56604;48.652;9.194;2022-09-21T12:02:59;97058.94;;;15.45;47.27
69411;BME280;56604;48.652;9.194;2022-09-21T12:09:19;97054.16;;;15.32;49.13
69411;BME280;56604;48.652;9.194;2022-09-21T12:12:19;97056.03;;;15.41;47.21
69411;BME280;56604;48.652;9.194;2022-09-21T12:17:39;97040.31;;;15.98;46.46
69411;BME280;56604;48.652;9.194;2022-09-21T12:22:46;97044.16;;;15.54;46.41
69411;BME280;56604;48.652;9.194;2022-09-21T12:25:21;97044.31;;;16.05;49.98
69411;BME280;56604;48.652;9.194;2022-09-21T12:27:51;97042.38;;;15.75;48.95
69411;BME280;56604;48.652;9.194;2022-09-21T12:30:22;97047.84;;;15.53;49.12
69411;BME280;56604;48.652;9.194;2022-09-21T12:44:17;97041.72;;;15.37;44.17
69411;BME280;56604;48.652;9.194;2022-09-21T12:46:50;97026.47;;;15.70;47.06
69411;BME280;56604;48.652;9.194;2022-09-21T12:49:29;97035.25;;;15.86;46.01
69411;BME280;56604;48.652;9.194;2022-09-21T12:52:01;97037.84;;;15.65;47.61
69411;BME280;56604;48.652;9.194;2022-09-21T12:54:51;97036.19;;;15.59;48.25
69411;BME280;56604;48.652;9.194;2022-09-21T13:00:04;97045.34;;;15.21;49.27
69411;BME280;56604;48.652;9.194;2022-09-21T13:02:36;97040.19;;;14.89;49.95
69411;BME280;56604;48.652;9.194;2022-09-21T13:12:58;97034.31;;;14.12;53.35
69411;BME280;56604;48.652;9.194;2022-09-21T13:15:28;97036.16;;;14.44;51.54
69411;BME280;56604;48.652;9.194;2022-09-21T13:18:01;97031.56;;;14.71;49.84
69411;BME280;56604;48.652;9.194;2022-09-21T13:20:33;97034.94;;;15.04;49.29
69411;BME280;56604;48.652;9.194;2022-09-21T13:22:59;97035.97;;;14.98;48.69
69411;BME280;56604;48.652;9.194;2022-09-21T13:25:28;97030.72;;;15.08;48.60
69411;BME280;56604;48.652;9.194;2022-09-21T13:32:56;97016.41;;;15.77;48.74
69411;BME280;56604;48.652;9.194;2022-09-21T13:49:14;97006.75;;;15.40;48.07
69411;BME280;56604;48.652;9.194;2022-09-21T13:52:07;97008.03;;;15.33;48.75
69411;BME280;56604;48.652;9.194;2022-09-21T13:57:20;97001.25;;;14.89;47.69
69411;BME280;56604;48.652;9.194;2022-09-21T14:05:00;96995.53;;;15.13;47.13
69411;BME280;56604;48.652;9.194;2022-09-21T14:07:29;96994.16;;;15.00;46.62
69411;BME280;56604;48.652;9.194;2022-09-21T14:09:58;96992.91;;;15.28;45.70
69411;BME280;56604;48.652;9.194;2022-09-21T14:12:26;96997.94;;;15.14;46.64
69411;BME280;56604;48.652;9.194;2022-09-21T14:15:29;96989.38;;;15.02;45.96
69411;BME280;56604;48.652;9.194;2022-09-21T14:20:40;96987.94;;;15.42;45.80
69411;BME280;56604;48.652;9.194;2022-09-21T14:23:27;96992.16;;;15.38;45.74
69411;BME280;56604;48.652;9.194;2022-09-21T14:25:53;96992.19;;;15.43;46.66
69411;BME280;56604;48.652;9.194;2022-09-21T14:31:02;96984.78;;;15.50;46.56
69411;BME280;56604;48.652;9.194;2022-09-21T14:33:34;96987.41;;;15.35;45.97
69411;BME280;56604;48.652;9.194;2022-09-21T14:36:06;96980.47;;;15.23;48.17
69411;BME280;56604;48.652;9.194;2022-09-21T14:38:46;96981.16;;;14.98;47.84
69411;BME280;56604;48.652;9.194;2022-09-21T14:41:18;96987.75;;;14.91;49.22
69411;BME280;56604;48.652;9.194;2022-09-21T14:43:52;96980.91;;;14.95;49.24
69411;BME280;56604;48.652;9.194;2022-09-21T14:49:21;96981.81;;;14.68;49.86
69411;BME280;56604;48.652;9.194;2022-09-21T15:00:16;96975.25;;;14.38;49.51
69411;BME280;56604;48.652;9.194;2022-09-21T15:02:48;96970.13;;;14.22;49.36
69411;BME280;56604;48.652;9.194;2022-09-21T15:05:30;96964.00;;;14.16;50.56
69411;BME280;56604;48.652;9.194;2022-09-21T15:11:23;96959.81;;;14.25;48.66
69411;BME280;56604;48.652;9.194;2022-09-21T15:16:47;96953.75;;;14.25;47.75
69411;BME280;56604;48.652;9.194;2022-09-21T15:21:42;96955.59;;;14.24;47.28
69411;BME280;56604;48.652;9.194;2022-09-21T15:24:21;96951.66;;;14.27;46.33
69411;BME280;56604;48.652;9.194;2022-09-21T15:26:49;96948.44;;;14.25;46.34
69411;BME280;56604;48.652;9.194;2022-09-21T15:29:26;96952.41;;;14.22;48.00
69411;BME280;56604;48.652;9.194;2022-09-21T15:31:52;96953.22;;;14.28;47.09
69411;BME280;56604;48.652;9.194;2022-09-21T15:34:18;96948.72;;;14.28;47.58
69411;BME280;56604;48.652;9.194;2022-09-21T15:36:44;96950.84;;;14.26;47.52
69411;BME280;56604;48.652;9.194;2022-09-21T15:39:21;96952.94;;;14.24;45.96
69411;BME280;56604;48.652;9.194;2022-09-21T15:41:47;96947.06;;;14.12;46.02
69411;BME280;56604;48.652;9.194;2022-09-21T15:46:40;96948.09;;;14.11;48.80
69411;BME280;56604;48.652;9.194;2022-09-21T15:49:16;96955.97;;;14.06;49.06
69411;BME280;56604;48.652;9.194;2022-09-21T15:51:48;96952.81;;;14.04;48.50
69411;BME280;56604;48.652;9.194;2022-09-21T15:54:20;96957.50;;;13.97;49.23
69411;BME280;56604;48.652;9.194;2022-09-21T15:56:48;96952.50;;;14.00;50.09
69411;BME280;56604;48.652;9.194;2022-09-21T15:59:16;96941.91;;;14.00;48.40
69411;BME280;56604;48.652;9.194;2022-09-21T16:01:47;96953.81;;;13.98;48.15
69411;BME280;56604;48.652;9.194;2022-09-21T16:04:17;96945.34;;;13.95;47.63
69411;BME280;56604;48.652;9.194;2022-09-21T16:06:46;96950.34;;;13.97;48.26
69411;BME280;56604;48.652;9.194;2022-09-21T16:11:47;96946.84;;;13.86;47.18
69411;BME280;56604;48.652;9.194;2022-09-21T16:14:14;96960.03;;;13.81;47.86
69411;BME280;56604;48.652;9.194;2022-09-21T16:22:37;96957.78;;;13.68;48.86
69411;BME280;56604;48.652;9.194;2022-09-21T16:25:23;96962.50;;;13.66;48.55